DAL705 KBOS-KATL
Flight info
| Callsign | DAL705 |
|---|---|
| Flight time | 2h 3m |
| Altitude | 38000 |
| Route | LOGAN4 PATSS TRIBS Q448 PTW J48 MOL ODF WHINZ |
| Aircraft | L101/H-SDFI/S |
Departure
| Time | 2026-05-05 10:36 |
|---|---|
| Airport | Boston Logan International Airport (KBOS) |
Arrival
| Time | 2026-05-05 12:40 |
|---|---|
| Airport | Hartsfield Jackson Atlanta International Airport (KATL) |
| Time | Latitude | Longitude | Altitude | Speed | Heading |
|---|---|---|---|---|---|
| 2026-05-05 10:10 | 42.36800 | -71.01410 | 30 ft | 0 kts | 259° |
| 2026-05-05 10:26 | 42.36803 | -71.01388 | 30 ft | 3 kts | 259° |
| 2026-05-05 10:26 | 42.36805 | -71.01371 | 30 ft | 0 kts | 259° |
| 2026-05-05 10:26 | 42.36809 | -71.01350 | 29 ft | 3 kts | 233° |
| 2026-05-05 10:26 | 42.36824 | -71.01335 | 29 ft | 3 kts | 189° |
| 2026-05-05 10:27 | 42.36842 | -71.01331 | 29 ft | 3 kts | 176° |
| 2026-05-05 10:27 | 42.36859 | -71.01339 | 29 ft | 3 kts | 124° |
| 2026-05-05 10:27 | 42.36869 | -71.01358 | 29 ft | 2 kts | 124° |
| 2026-05-05 10:27 | 42.36878 | -71.01375 | 30 ft | 0 kts | 124° |
| 2026-05-05 10:29 | 42.36876 | -71.01373 | 30 ft | 1 kts | 129° |
| 2026-05-05 10:29 | 42.36874 | -71.01370 | 29 ft | 0 kts | 133° |
| 2026-05-05 10:31 | 42.36866 | -71.01359 | 28 ft | 5 kts | 137° |
| 2026-05-05 10:31 | 42.36839 | -71.01298 | 30 ft | 10 kts | 89° |
| 2026-05-05 10:31 | 42.36864 | -71.01249 | 29 ft | 0 kts | 44° |
| 2026-05-05 10:32 | 42.36865 | -71.01249 | 29 ft | 1 kts | 44° |
| 2026-05-05 10:32 | 42.36882 | -71.01226 | 29 ft | 6 kts | 43° |
| 2026-05-05 10:32 | 42.36931 | -71.01167 | 30 ft | 13 kts | 41° |
| 2026-05-05 10:32 | 42.37023 | -71.01084 | 28 ft | 20 kts | 25° |
| 2026-05-05 10:33 | 42.37162 | -71.00994 | 27 ft | 24 kts | 26° |
| 2026-05-05 10:33 | 42.37324 | -71.00894 | 26 ft | 27 kts | 20° |
| 2026-05-05 10:33 | 42.37509 | -71.00802 | 29 ft | 29 kts | 19° |
| 2026-05-05 10:33 | 42.37702 | -71.00709 | 33 ft | 24 kts | 19° |
| 2026-05-05 10:34 | 42.37826 | -71.00639 | 32 ft | 15 kts | 46° |
| 2026-05-05 10:34 | 42.37838 | -71.00599 | 32 ft | 0 kts | 99° |
| 2026-05-05 10:35 | 42.37837 | -71.00591 | 33 ft | 4 kts | 99° |
| 2026-05-05 10:35 | 42.37824 | -71.00515 | 32 ft | 12 kts | 107° |
| 2026-05-05 10:35 | 42.37790 | -71.00473 | 30 ft | 4 kts | 189° |
| 2026-05-05 10:36 | 42.37717 | -71.00509 | 31 ft | 32 kts | 200° |
| 2026-05-05 10:36 | 42.37198 | -71.00760 | 28 ft | 125 kts | 200° |
| 2026-05-05 10:36 | 42.36222 | -71.01236 | 604 ft | 159 kts | 200° |
| 2026-05-05 10:36 | 42.35119 | -71.01467 | 1707 ft | 168 kts | 180° |
| 2026-05-05 10:37 | 42.34029 | -71.00692 | 2155 ft | 201 kts | 147° |
| 2026-05-05 10:37 | 42.33222 | -70.98999 | 2508 ft | 223 kts | 126° |
| 2026-05-05 10:37 | 42.32495 | -70.97111 | 2937 ft | 235 kts | 123° |
| 2026-05-05 10:37 | 42.31710 | -70.95095 | 3435 ft | 247 kts | 123° |
| 2026-05-05 10:38 | 42.30864 | -70.92962 | 3984 ft | 267 kts | 126° |
| 2026-05-05 10:38 | 42.29702 | -70.91006 | 4723 ft | 269 kts | 147° |
| 2026-05-05 10:38 | 42.28039 | -70.89906 | 5419 ft | 268 kts | 175° |
| 2026-05-05 10:38 | 42.26253 | -70.90044 | 6386 ft | 252 kts | 207° |
| 2026-05-05 10:39 | 42.24903 | -70.91435 | 7319 ft | 245 kts | 237° |
| 2026-05-05 10:39 | 42.24334 | -70.93603 | 7964 ft | 257 kts | 266° |
| 2026-05-05 10:39 | 42.24585 | -70.96035 | 8527 ft | 271 kts | 282° |
| 2026-05-05 10:39 | 42.25094 | -70.98430 | 9803 ft | 260 kts | 284° |
| 2026-05-05 10:40 | 42.25649 | -71.00750 | 10692 ft | 267 kts | 285° |
| 2026-05-05 10:40 | 42.26278 | -71.03245 | 10940 ft | 295 kts | 286° |
| 2026-05-05 10:40 | 42.26969 | -71.05970 | 11245 ft | 317 kts | 286° |
| 2026-05-05 10:40 | 42.27710 | -71.08872 | 11627 ft | 334 kts | 287° |
| 2026-05-05 10:41 | 42.28478 | -71.11886 | 12235 ft | 346 kts | 286° |
| 2026-05-05 10:41 | 42.29222 | -71.15046 | 12675 ft | 359 kts | 279° |
| 2026-05-05 10:41 | 42.29143 | -71.18406 | 13335 ft | 362 kts | 253° |
| 2026-05-05 10:41 | 42.28076 | -71.21459 | 14346 ft | 356 kts | 242° |
| 2026-05-05 10:42 | 42.25689 | -71.27106 | 16491 ft | 344 kts | 241° |
| 2026-05-05 10:42 | 42.24559 | -71.29938 | 17572 ft | 341 kts | 243° |
| 2026-05-05 10:42 | 42.23495 | -71.32822 | 18446 ft | 345 kts | 244° |
| 2026-05-05 10:43 | 42.22445 | -71.35770 | 19101 ft | 353 kts | 245° |
| 2026-05-05 10:43 | 42.21378 | -71.38789 | 19745 ft | 361 kts | 245° |
| 2026-05-05 10:43 | 42.20281 | -71.41882 | 20367 ft | 370 kts | 245° |
| 2026-05-05 10:43 | 42.19153 | -71.45054 | 20977 ft | 381 kts | 245° |
| 2026-05-05 10:44 | 42.17989 | -71.48314 | 21556 ft | 391 kts | 245° |
| 2026-05-05 10:44 | 42.16805 | -71.51623 | 22078 ft | 402 kts | 245° |
| 2026-05-05 10:44 | 42.15575 | -71.55060 | 22617 ft | 412 kts | 245° |
| 2026-05-05 10:44 | 42.14315 | -71.58579 | 23220 ft | 420 kts | 245° |
| 2026-05-05 10:45 | 42.13038 | -71.62144 | 23836 ft | 426 kts | 245° |
| 2026-05-05 10:45 | 42.11741 | -71.65761 | 24408 ft | 431 kts | 245° |
| 2026-05-05 10:45 | 42.10432 | -71.69412 | 25027 ft | 436 kts | 245° |
| 2026-05-05 10:45 | 42.09105 | -71.73111 | 25637 ft | 440 kts | 245° |
| 2026-05-05 10:46 | 42.07772 | -71.76827 | 26257 ft | 444 kts | 246° |
| 2026-05-05 10:46 | 42.06454 | -71.80548 | 26888 ft | 447 kts | 247° |
| 2026-05-05 10:46 | 42.05233 | -71.84403 | 27536 ft | 449 kts | 250° |
| 2026-05-05 10:46 | 42.04102 | -71.88317 | 28214 ft | 451 kts | 251° |
| 2026-05-05 10:47 | 42.03011 | -71.92294 | 28914 ft | 453 kts | 251° |
| 2026-05-05 10:47 | 42.01945 | -71.96293 | 29622 ft | 455 kts | 252° |
| 2026-05-05 10:47 | 42.00891 | -72.00318 | 30279 ft | 456 kts | 252° |
| 2026-05-05 10:47 | 41.99842 | -72.04355 | 30881 ft | 458 kts | 252° |
| 2026-05-05 10:48 | 41.98794 | -72.08396 | 31516 ft | 459 kts | 252° |
| 2026-05-05 10:48 | 41.97741 | -72.12453 | 32166 ft | 459 kts | 252° |
| 2026-05-05 10:48 | 41.96690 | -72.16504 | 32830 ft | 460 kts | 252° |
| 2026-05-05 10:48 | 41.95651 | -72.20507 | 33496 ft | 459 kts | 252° |
| 2026-05-05 10:49 | 41.94600 | -72.24543 | 34155 ft | 458 kts | 252° |
| 2026-05-05 10:49 | 41.93549 | -72.28581 | 34760 ft | 457 kts | 252° |
| 2026-05-05 10:49 | 41.92507 | -72.32598 | 35385 ft | 455 kts | 252° |
| 2026-05-05 10:49 | 41.91466 | -72.36600 | 36020 ft | 453 kts | 252° |
| 2026-05-05 10:50 | 41.90426 | -72.40585 | 36671 ft | 451 kts | 252° |
| 2026-05-05 10:50 | 41.89386 | -72.44548 | 37357 ft | 448 kts | 253° |
| 2026-05-05 10:50 | 41.88348 | -72.48485 | 37841 ft | 447 kts | 253° |
| 2026-05-05 10:51 | 41.86298 | -72.56215 | 37946 ft | 440 kts | 252° |
| 2026-05-05 10:51 | 41.84252 | -72.63932 | 37972 ft | 438 kts | 253° |
| 2026-05-05 10:52 | 41.82202 | -72.71616 | 37979 ft | 438 kts | 252° |
| 2026-05-05 10:52 | 41.79987 | -72.79219 | 37920 ft | 438 kts | 251° |
| 2026-05-05 10:53 | 41.77839 | -72.86852 | 37907 ft | 437 kts | 252° |
| 2026-05-05 10:53 | 41.75805 | -72.94477 | 37910 ft | 437 kts | 253° |
| 2026-05-05 10:54 | 41.73774 | -73.02136 | 37934 ft | 436 kts | 252° |
| 2026-05-05 10:54 | 41.71701 | -73.09791 | 37915 ft | 437 kts | 252° |
| 2026-05-05 10:55 | 41.69597 | -73.17429 | 37931 ft | 437 kts | 252° |
| 2026-05-05 10:55 | 41.67499 | -73.25009 | 37919 ft | 437 kts | 252° |
| 2026-05-05 10:56 | 41.64814 | -73.32284 | 37878 ft | 441 kts | 234° |
| 2026-05-05 10:56 | 41.60795 | -73.38532 | 37929 ft | 443 kts | 234° |
| 2026-05-05 10:57 | 41.56969 | -73.44974 | 37902 ft | 443 kts | 234° |
| 2026-05-05 10:57 | 41.52986 | -73.51268 | 37912 ft | 444 kts | 232° |
| 2026-05-05 10:58 | 41.48934 | -73.57424 | 37911 ft | 444 kts | 232° |
| 2026-05-05 10:58 | 41.44849 | -73.63617 | 37941 ft | 444 kts | 232° |
| 2026-05-05 10:59 | 41.40764 | -73.69783 | 37925 ft | 444 kts | 232° |
| 2026-05-05 10:59 | 41.36668 | -73.75941 | 37927 ft | 443 kts | 232° |
| 2026-05-05 11:00 | 41.32568 | -73.82069 | 37912 ft | 443 kts | 231° |
| 2026-05-05 11:00 | 41.28469 | -73.88112 | 37906 ft | 444 kts | 231° |
| 2026-05-05 11:01 | 41.24340 | -73.94218 | 37898 ft | 444 kts | 231° |
| 2026-05-05 11:01 | 41.20203 | -74.00342 | 37918 ft | 446 kts | 231° |
| 2026-05-05 11:02 | 41.16061 | -74.06460 | 37913 ft | 446 kts | 231° |
| 2026-05-05 11:02 | 41.12044 | -74.12638 | 37924 ft | 444 kts | 234° |
| 2026-05-05 11:03 | 41.08139 | -74.18987 | 37917 ft | 445 kts | 233° |
| 2026-05-05 11:03 | 41.04205 | -74.25320 | 37926 ft | 446 kts | 233° |
| 2026-05-05 11:04 | 41.00264 | -74.31675 | 37932 ft | 446 kts | 233° |
| 2026-05-05 11:04 | 40.96325 | -74.38035 | 37934 ft | 446 kts | 233° |
| 2026-05-05 11:05 | 40.92410 | -74.44342 | 37926 ft | 447 kts | 233° |
| 2026-05-05 11:05 | 40.88461 | -74.50697 | 37936 ft | 448 kts | 233° |
| 2026-05-05 11:06 | 40.84495 | -74.57064 | 37936 ft | 449 kts | 233° |
| 2026-05-05 11:06 | 40.80516 | -74.63432 | 37932 ft | 449 kts | 233° |
| 2026-05-05 11:07 | 40.76575 | -74.69729 | 37927 ft | 449 kts | 233° |
| 2026-05-05 11:07 | 40.72591 | -74.76088 | 37924 ft | 450 kts | 232° |
| 2026-05-05 11:08 | 40.68587 | -74.82464 | 37925 ft | 452 kts | 232° |
| 2026-05-05 11:08 | 40.64579 | -74.88834 | 37926 ft | 452 kts | 232° |
| 2026-05-05 11:09 | 40.60556 | -74.95206 | 37924 ft | 452 kts | 232° |
| 2026-05-05 11:09 | 40.56542 | -75.01558 | 37913 ft | 452 kts | 232° |
| 2026-05-05 11:10 | 40.52557 | -75.07888 | 37925 ft | 452 kts | 232° |
| 2026-05-05 11:10 | 40.48536 | -75.14235 | 37944 ft | 452 kts | 232° |
| 2026-05-05 11:11 | 40.44533 | -75.20605 | 37951 ft | 452 kts | 232° |
| 2026-05-05 11:11 | 40.40538 | -75.26985 | 37948 ft | 452 kts | 232° |
| 2026-05-05 11:12 | 40.36572 | -75.33308 | 37944 ft | 452 kts | 232° |
| 2026-05-05 11:12 | 40.32580 | -75.39663 | 37961 ft | 452 kts | 232° |
| 2026-05-05 11:13 | 40.28581 | -75.46013 | 37941 ft | 452 kts | 232° |
| 2026-05-05 11:13 | 40.24584 | -75.52351 | 37941 ft | 451 kts | 232° |
| 2026-05-05 11:14 | 40.20776 | -75.58872 | 37953 ft | 450 kts | 238° |
| 2026-05-05 11:14 | 40.17366 | -75.65666 | 37930 ft | 450 kts | 238° |
| 2026-05-05 11:15 | 40.13893 | -75.72478 | 37925 ft | 450 kts | 238° |
| 2026-05-05 11:15 | 40.10436 | -75.79294 | 37929 ft | 450 kts | 238° |
| 2026-05-05 11:16 | 40.06983 | -75.86062 | 37930 ft | 450 kts | 237° |
| 2026-05-05 11:16 | 40.03462 | -75.92813 | 37939 ft | 450 kts | 237° |
| 2026-05-05 11:17 | 39.99942 | -75.99584 | 37925 ft | 450 kts | 237° |
| 2026-05-05 11:17 | 39.96435 | -76.06344 | 37926 ft | 450 kts | 238° |
| 2026-05-05 11:18 | 39.93108 | -76.13247 | 37920 ft | 450 kts | 240° |
| 2026-05-05 11:18 | 39.89898 | -76.20228 | 37911 ft | 449 kts | 240° |
| 2026-05-05 11:19 | 39.86503 | -76.26989 | 37926 ft | 450 kts | 235° |
| 2026-05-05 11:19 | 39.82770 | -76.33533 | 37915 ft | 450 kts | 236° |
| 2026-05-05 11:20 | 39.79059 | -76.40086 | 37928 ft | 450 kts | 236° |
| 2026-05-05 11:20 | 39.75433 | -76.46712 | 37928 ft | 449 kts | 237° |
| 2026-05-05 11:21 | 39.71933 | -76.53379 | 37910 ft | 449 kts | 238° |
| 2026-05-05 11:21 | 39.68470 | -76.60117 | 37922 ft | 449 kts | 238° |
| 2026-05-05 11:22 | 39.65016 | -76.66865 | 37921 ft | 449 kts | 238° |
| 2026-05-05 11:22 | 39.61556 | -76.73614 | 37926 ft | 449 kts | 238° |
| 2026-05-05 11:23 | 39.58115 | -76.80308 | 37930 ft | 449 kts | 238° |
| 2026-05-05 11:23 | 39.54640 | -76.87049 | 37927 ft | 449 kts | 238° |
| 2026-05-05 11:24 | 39.51164 | -76.93770 | 37935 ft | 449 kts | 238° |
| 2026-05-05 11:24 | 39.49236 | -76.96959 | 37909 ft | 451 kts | 227° |
| 2026-05-05 11:24 | 39.46888 | -76.99646 | 37956 ft | 453 kts | 221° |
| 2026-05-05 11:25 | 39.42056 | -77.04905 | 37952 ft | 453 kts | 224° |
| 2026-05-05 11:25 | 39.37373 | -77.10276 | 37966 ft | 454 kts | 223° |
| 2026-05-05 11:26 | 39.32512 | -77.15495 | 37969 ft | 455 kts | 222° |
| 2026-05-05 11:26 | 39.27615 | -77.20658 | 37962 ft | 454 kts | 222° |
| 2026-05-05 11:27 | 39.22717 | -77.25813 | 37971 ft | 455 kts | 222° |
| 2026-05-05 11:27 | 39.17825 | -77.30938 | 37970 ft | 456 kts | 222° |
| 2026-05-05 11:28 | 39.12902 | -77.36081 | 37970 ft | 456 kts | 221° |
| 2026-05-05 11:28 | 39.07966 | -77.41229 | 37967 ft | 457 kts | 221° |
| 2026-05-05 11:29 | 39.03029 | -77.46365 | 37961 ft | 457 kts | 221° |
| 2026-05-05 11:29 | 38.98118 | -77.51465 | 37961 ft | 457 kts | 221° |
| 2026-05-05 11:30 | 38.93175 | -77.56589 | 37958 ft | 457 kts | 221° |
| 2026-05-05 11:30 | 38.88231 | -77.61705 | 37961 ft | 458 kts | 221° |
| 2026-05-05 11:31 | 38.83259 | -77.66844 | 37972 ft | 459 kts | 221° |
| 2026-05-05 11:31 | 38.78304 | -77.71953 | 37971 ft | 460 kts | 221° |
| 2026-05-05 11:32 | 38.73318 | -77.77084 | 37973 ft | 460 kts | 221° |
| 2026-05-05 11:32 | 38.68329 | -77.82209 | 37948 ft | 460 kts | 221° |
| 2026-05-05 11:33 | 38.63676 | -77.87750 | 37982 ft | 454 kts | 234° |
| 2026-05-05 11:33 | 38.59866 | -77.94181 | 38001 ft | 455 kts | 233° |
| 2026-05-05 11:34 | 38.55899 | -78.00419 | 37996 ft | 455 kts | 234° |
| 2026-05-05 11:34 | 38.52049 | -78.06814 | 37985 ft | 454 kts | 236° |
| 2026-05-05 11:35 | 38.48271 | -78.13255 | 37971 ft | 453 kts | 236° |
| 2026-05-05 11:35 | 38.44493 | -78.19685 | 37973 ft | 453 kts | 236° |
| 2026-05-05 11:36 | 38.40746 | -78.26069 | 37974 ft | 452 kts | 236° |
| 2026-05-05 11:36 | 38.36975 | -78.32488 | 37970 ft | 452 kts | 236° |
| 2026-05-05 11:37 | 38.33201 | -78.38898 | 37983 ft | 452 kts | 236° |
| 2026-05-05 11:37 | 38.29422 | -78.45308 | 37981 ft | 452 kts | 236° |
| 2026-05-05 11:38 | 38.25673 | -78.51653 | 37994 ft | 451 kts | 236° |
| 2026-05-05 11:38 | 38.21910 | -78.58013 | 37994 ft | 451 kts | 236° |
| 2026-05-05 11:39 | 38.18133 | -78.64380 | 37988 ft | 451 kts | 236° |
| 2026-05-05 11:39 | 38.14348 | -78.70747 | 37985 ft | 451 kts | 236° |
| 2026-05-05 11:40 | 38.10567 | -78.77100 | 38005 ft | 451 kts | 236° |
| 2026-05-05 11:40 | 38.06774 | -78.83449 | 38005 ft | 451 kts | 236° |
| 2026-05-05 11:41 | 38.02937 | -78.89675 | 37998 ft | 451 kts | 235° |
| 2026-05-05 11:41 | 37.99014 | -78.95886 | 37991 ft | 452 kts | 234° |
| 2026-05-05 11:42 | 37.95024 | -79.02042 | 37978 ft | 452 kts | 233° |
| 2026-05-05 11:42 | 37.91038 | -79.08194 | 37975 ft | 452 kts | 234° |
| 2026-05-05 11:43 | 37.87103 | -79.14298 | 37973 ft | 451 kts | 233° |
| 2026-05-05 11:43 | 37.82942 | -79.20271 | 37969 ft | 452 kts | 232° |
| 2026-05-05 11:44 | 37.78734 | -79.26181 | 37963 ft | 452 kts | 232° |
| 2026-05-05 11:44 | 37.74527 | -79.32019 | 37963 ft | 452 kts | 231° |
| 2026-05-05 11:45 | 37.70249 | -79.37842 | 37948 ft | 453 kts | 231° |
| 2026-05-05 11:45 | 37.65970 | -79.43684 | 37959 ft | 453 kts | 231° |
| 2026-05-05 11:46 | 37.61705 | -79.49564 | 37979 ft | 455 kts | 232° |
| 2026-05-05 11:46 | 37.57438 | -79.55460 | 37985 ft | 455 kts | 232° |
| 2026-05-05 11:47 | 37.53205 | -79.61310 | 38003 ft | 455 kts | 232° |
| 2026-05-05 11:47 | 37.48915 | -79.67186 | 37990 ft | 455 kts | 231° |
| 2026-05-05 11:48 | 37.42416 | -79.75905 | 38033 ft | 456 kts | 231° |
| 2026-05-05 11:48 | 37.38061 | -79.81707 | 38041 ft | 456 kts | 231° |
| 2026-05-05 11:49 | 37.33703 | -79.87482 | 38052 ft | 459 kts | 231° |
| 2026-05-05 11:49 | 37.29307 | -79.93288 | 38052 ft | 459 kts | 231° |
| 2026-05-05 11:50 | 37.24905 | -79.99094 | 38012 ft | 459 kts | 231° |
| 2026-05-05 11:50 | 37.21247 | -80.03908 | 38026 ft | 458 kts | 231° |
| 2026-05-05 11:51 | 37.16136 | -80.10634 | 38044 ft | 458 kts | 231° |
| 2026-05-05 11:51 | 37.11741 | -80.16423 | 38055 ft | 458 kts | 231° |
| 2026-05-05 11:52 | 37.08104 | -80.21253 | 38062 ft | 459 kts | 232° |
| 2026-05-05 11:52 | 37.03782 | -80.27141 | 38055 ft | 459 kts | 233° |
| 2026-05-05 11:53 | 36.99490 | -80.33042 | 38052 ft | 459 kts | 233° |
| 2026-05-05 11:53 | 36.94510 | -80.39914 | 38036 ft | 459 kts | 233° |
| 2026-05-05 11:54 | 36.90922 | -80.44872 | 38022 ft | 459 kts | 233° |
| 2026-05-05 11:54 | 36.86668 | -80.50755 | 38000 ft | 459 kts | 233° |
| 2026-05-05 11:55 | 36.82390 | -80.56663 | 37995 ft | 460 kts | 234° |
| 2026-05-05 11:55 | 36.78066 | -80.62585 | 38061 ft | 462 kts | 233° |
| 2026-05-05 11:56 | 36.73816 | -80.68579 | 38071 ft | 460 kts | 236° |
| 2026-05-05 11:56 | 36.69690 | -80.74622 | 38078 ft | 462 kts | 234° |
| 2026-05-05 11:57 | 36.65334 | -80.80525 | 38073 ft | 463 kts | 233° |
| 2026-05-05 11:57 | 36.60922 | -80.86387 | 38052 ft | 463 kts | 233° |
| 2026-05-05 11:58 | 36.56524 | -80.92219 | 38028 ft | 462 kts | 233° |
| 2026-05-05 11:58 | 36.52099 | -80.98058 | 38019 ft | 464 kts | 233° |
| 2026-05-05 11:59 | 36.47699 | -81.03848 | 38041 ft | 464 kts | 233° |
| 2026-05-05 11:59 | 36.43263 | -81.09676 | 38062 ft | 464 kts | 233° |
| 2026-05-05 12:00 | 36.38819 | -81.15497 | 38092 ft | 463 kts | 233° |
| 2026-05-05 12:00 | 36.34391 | -81.21290 | 38103 ft | 463 kts | 233° |
| 2026-05-05 12:01 | 36.29989 | -81.27039 | 38080 ft | 463 kts | 233° |
| 2026-05-05 12:01 | 36.25551 | -81.32823 | 38069 ft | 463 kts | 234° |
| 2026-05-05 12:02 | 36.21111 | -81.38607 | 38050 ft | 463 kts | 234° |
| 2026-05-05 12:02 | 36.16662 | -81.44384 | 38024 ft | 463 kts | 234° |
| 2026-05-05 12:03 | 36.12096 | -81.50018 | 38013 ft | 467 kts | 230° |
| 2026-05-05 12:03 | 36.07232 | -81.55384 | 38001 ft | 468 kts | 230° |
| 2026-05-05 12:04 | 36.02423 | -81.60695 | 37998 ft | 467 kts | 230° |
| 2026-05-05 12:04 | 35.97637 | -81.66124 | 37986 ft | 466 kts | 232° |
| 2026-05-05 12:05 | 35.92923 | -81.71633 | 38004 ft | 468 kts | 235° |
| 2026-05-05 12:05 | 35.88256 | -81.77230 | 38007 ft | 468 kts | 236° |
| 2026-05-05 12:06 | 35.83679 | -81.82832 | 38083 ft | 467 kts | 236° |
| 2026-05-05 12:06 | 35.79111 | -81.88515 | 38064 ft | 466 kts | 237° |
| 2026-05-05 12:07 | 35.74583 | -81.94226 | 38043 ft | 466 kts | 237° |
| 2026-05-05 12:07 | 35.70093 | -81.99950 | 38040 ft | 465 kts | 237° |
| 2026-05-05 12:08 | 35.65650 | -82.05661 | 38047 ft | 465 kts | 237° |
| 2026-05-05 12:08 | 35.61199 | -82.11416 | 38053 ft | 464 kts | 238° |
| 2026-05-05 12:09 | 35.56757 | -82.17182 | 38051 ft | 464 kts | 238° |
| 2026-05-05 12:09 | 35.52327 | -82.22952 | 38047 ft | 464 kts | 238° |
| 2026-05-05 12:10 | 35.47900 | -82.28728 | 38034 ft | 464 kts | 238° |
| 2026-05-05 12:10 | 35.43516 | -82.34456 | 38027 ft | 465 kts | 238° |
| 2026-05-05 12:11 | 35.39087 | -82.40242 | 38002 ft | 465 kts | 238° |
| 2026-05-05 12:11 | 35.34678 | -82.45994 | 38031 ft | 462 kts | 238° |
| 2026-05-05 12:12 | 35.30286 | -82.51722 | 38088 ft | 461 kts | 238° |
| 2026-05-05 12:12 | 35.25904 | -82.57433 | 38060 ft | 460 kts | 238° |
| 2026-05-05 12:13 | 35.21530 | -82.63121 | 38058 ft | 462 kts | 238° |
| 2026-05-05 12:13 | 35.17119 | -82.68845 | 38049 ft | 463 kts | 238° |
| 2026-05-05 12:14 | 35.12699 | -82.74567 | 37908 ft | 462 kts | 238° |
| 2026-05-05 12:14 | 35.10498 | -82.77408 | 37653 ft | 460 kts | 238° |
| 2026-05-05 12:14 | 35.08299 | -82.80247 | 37260 ft | 461 kts | 237° |
| 2026-05-05 12:15 | 35.06092 | -82.83097 | 36851 ft | 463 kts | 237° |
| 2026-05-05 12:15 | 35.03880 | -82.85953 | 36474 ft | 464 kts | 237° |
| 2026-05-05 12:15 | 35.01683 | -82.88786 | 35995 ft | 467 kts | 237° |
| 2026-05-05 12:15 | 34.99449 | -82.91664 | 35468 ft | 469 kts | 237° |
| 2026-05-05 12:16 | 34.97195 | -82.94557 | 34959 ft | 468 kts | 236° |
| 2026-05-05 12:16 | 34.94955 | -82.97424 | 34461 ft | 467 kts | 236° |
| 2026-05-05 12:16 | 34.92718 | -83.00285 | 33898 ft | 466 kts | 236° |
| 2026-05-05 12:16 | 34.90490 | -83.03134 | 33251 ft | 464 kts | 235° |
| 2026-05-05 12:17 | 34.88267 | -83.05975 | 32614 ft | 462 kts | 235° |
| 2026-05-05 12:17 | 34.86055 | -83.08798 | 32004 ft | 459 kts | 234° |
| 2026-05-05 12:17 | 34.83857 | -83.11600 | 31405 ft | 456 kts | 233° |
| 2026-05-05 12:17 | 34.81704 | -83.14344 | 30821 ft | 453 kts | 233° |
| 2026-05-05 12:18 | 34.79535 | -83.17106 | 30197 ft | 451 kts | 233° |
| 2026-05-05 12:18 | 34.77371 | -83.19865 | 29503 ft | 449 kts | 233° |
| 2026-05-05 12:18 | 34.75212 | -83.22587 | 28823 ft | 445 kts | 232° |
| 2026-05-05 12:18 | 34.73048 | -83.25261 | 28166 ft | 442 kts | 231° |
| 2026-05-05 12:19 | 34.70897 | -83.27908 | 27517 ft | 437 kts | 231° |
| 2026-05-05 12:19 | 34.68759 | -83.30509 | 26865 ft | 435 kts | 228° |
| 2026-05-05 12:19 | 34.66401 | -83.32822 | 26233 ft | 437 kts | 219° |
| 2026-05-05 12:19 | 34.63751 | -83.34650 | 25623 ft | 440 kts | 210° |
| 2026-05-05 12:20 | 34.60941 | -83.36012 | 25044 ft | 438 kts | 208° |
| 2026-05-05 12:20 | 34.58231 | -83.37613 | 24458 ft | 429 kts | 214° |
| 2026-05-05 12:20 | 34.55718 | -83.39497 | 23883 ft | 423 kts | 218° |
| 2026-05-05 12:20 | 34.53319 | -83.41532 | 23217 ft | 417 kts | 220° |
| 2026-05-05 12:21 | 34.51008 | -83.43624 | 22562 ft | 413 kts | 221° |
| 2026-05-05 12:21 | 34.48748 | -83.45748 | 21884 ft | 408 kts | 222° |
| 2026-05-05 12:21 | 34.46536 | -83.47873 | 21243 ft | 404 kts | 222° |
| 2026-05-05 12:21 | 34.44363 | -83.50013 | 20595 ft | 400 kts | 223° |
| 2026-05-05 12:22 | 34.42246 | -83.52182 | 19997 ft | 396 kts | 224° |
| 2026-05-05 12:22 | 34.40198 | -83.54325 | 19420 ft | 393 kts | 224° |
| 2026-05-05 12:22 | 34.38143 | -83.56475 | 18828 ft | 389 kts | 224° |
| 2026-05-05 12:22 | 34.36101 | -83.58610 | 18224 ft | 386 kts | 224° |
| 2026-05-05 12:23 | 34.34082 | -83.60726 | 17566 ft | 382 kts | 224° |
| 2026-05-05 12:23 | 34.32088 | -83.62833 | 16942 ft | 378 kts | 224° |
| 2026-05-05 12:23 | 34.30127 | -83.64928 | 16291 ft | 374 kts | 224° |
| 2026-05-05 12:23 | 34.28170 | -83.66983 | 15661 ft | 371 kts | 220° |
| 2026-05-05 12:24 | 34.26098 | -83.68811 | 15061 ft | 368 kts | 216° |
| 2026-05-05 12:24 | 34.23977 | -83.70527 | 14464 ft | 364 kts | 214° |
| 2026-05-05 12:24 | 34.21883 | -83.72212 | 13877 ft | 360 kts | 214° |
| 2026-05-05 12:24 | 34.19854 | -83.73873 | 13229 ft | 356 kts | 215° |
| 2026-05-05 12:25 | 34.17823 | -83.75567 | 12583 ft | 352 kts | 215° |
| 2026-05-05 12:25 | 34.15833 | -83.77253 | 11951 ft | 349 kts | 216° |
| 2026-05-05 12:25 | 34.13856 | -83.78945 | 11340 ft | 346 kts | 216° |
| 2026-05-05 12:25 | 34.11912 | -83.80626 | 10734 ft | 343 kts | 216° |
| 2026-05-05 12:26 | 34.10006 | -83.82335 | 10232 ft | 339 kts | 217° |
| 2026-05-05 12:26 | 34.08131 | -83.84062 | 9655 ft | 338 kts | 218° |
| 2026-05-05 12:26 | 34.06330 | -83.85744 | 9303 ft | 316 kts | 218° |
| 2026-05-05 12:26 | 34.04675 | -83.87345 | 9028 ft | 296 kts | 220° |
| 2026-05-05 12:27 | 34.03150 | -83.88936 | 8668 ft | 284 kts | 221° |
| 2026-05-05 12:27 | 34.01690 | -83.90510 | 8300 ft | 286 kts | 222° |
| 2026-05-05 12:27 | 34.00231 | -83.92136 | 7886 ft | 286 kts | 223° |
| 2026-05-05 12:27 | 33.98790 | -83.93795 | 7458 ft | 286 kts | 224° |
| 2026-05-05 12:28 | 33.97364 | -83.95456 | 7081 ft | 284 kts | 224° |
| 2026-05-05 12:28 | 33.95963 | -83.97098 | 6774 ft | 279 kts | 224° |
| 2026-05-05 12:28 | 33.94589 | -83.98719 | 6523 ft | 275 kts | 224° |
| 2026-05-05 12:28 | 33.93235 | -84.00321 | 6320 ft | 269 kts | 224° |
| 2026-05-05 12:29 | 33.91935 | -84.01860 | 6448 ft | 259 kts | 224° |
| 2026-05-05 12:29 | 33.90622 | -84.03412 | 6604 ft | 266 kts | 221° |
| 2026-05-05 12:29 | 33.89059 | -84.04591 | 6361 ft | 273 kts | 201° |
| 2026-05-05 12:29 | 33.87212 | -84.05135 | 6108 ft | 278 kts | 187° |
| 2026-05-05 12:30 | 33.85303 | -84.05195 | 6098 ft | 271 kts | 181° |
| 2026-05-05 12:30 | 33.83430 | -84.05197 | 6052 ft | 267 kts | 181° |
| 2026-05-05 12:30 | 33.81580 | -84.05188 | 6010 ft | 264 kts | 181° |
| 2026-05-05 12:30 | 33.79753 | -84.05148 | 5925 ft | 262 kts | 180° |
| 2026-05-05 12:31 | 33.77936 | -84.05097 | 5892 ft | 259 kts | 180° |
| 2026-05-05 12:31 | 33.76142 | -84.05044 | 5821 ft | 258 kts | 180° |
| 2026-05-05 12:31 | 33.74350 | -84.04974 | 5825 ft | 255 kts | 179° |
| 2026-05-05 12:31 | 33.72600 | -84.04887 | 5885 ft | 256 kts | 179° |
| 2026-05-05 12:32 | 33.70824 | -84.04783 | 5963 ft | 256 kts | 179° |
| 2026-05-05 12:32 | 33.69035 | -84.04704 | 6008 ft | 258 kts | 180° |
| 2026-05-05 12:32 | 33.67236 | -84.04631 | 5987 ft | 255 kts | 179° |
| 2026-05-05 12:32 | 33.65494 | -84.04528 | 5903 ft | 247 kts | 179° |
| 2026-05-05 12:33 | 33.63809 | -84.04559 | 5735 ft | 240 kts | 194° |
| 2026-05-05 12:33 | 33.62404 | -84.05539 | 5540 ft | 236 kts | 231° |
| 2026-05-05 12:33 | 33.61784 | -84.07341 | 5309 ft | 239 kts | 264° |
| 2026-05-05 12:33 | 33.62124 | -84.09283 | 5128 ft | 243 kts | 290° |
| 2026-05-05 12:34 | 33.62775 | -84.11123 | 5142 ft | 239 kts | 283° |
| 2026-05-05 12:34 | 33.63095 | -84.13035 | 5267 ft | 233 kts | 276° |
| 2026-05-05 12:34 | 33.63342 | -84.14963 | 5155 ft | 229 kts | 275° |
| 2026-05-05 12:34 | 33.63446 | -84.16717 | 5238 ft | 195 kts | 268° |
| 2026-05-05 12:35 | 33.63481 | -84.18302 | 5025 ft | 187 kts | 267° |
| 2026-05-05 12:35 | 33.63453 | -84.19848 | 4738 ft | 184 kts | 265° |
| 2026-05-05 12:35 | 33.63417 | -84.21338 | 4445 ft | 173 kts | 264° |
| 2026-05-05 12:35 | 33.63355 | -84.22726 | 4141 ft | 163 kts | 262° |
| 2026-05-05 12:36 | 33.63259 | -84.24066 | 3938 ft | 163 kts | 262° |
| 2026-05-05 12:36 | 33.63187 | -84.25420 | 3769 ft | 162 kts | 264° |
| 2026-05-05 12:36 | 33.63172 | -84.26762 | 3487 ft | 159 kts | 266° |
| 2026-05-05 12:36 | 33.63179 | -84.28057 | 3300 ft | 154 kts | 266° |
| 2026-05-05 12:37 | 33.63189 | -84.29324 | 3099 ft | 149 kts | 265° |
| 2026-05-05 12:37 | 33.63182 | -84.30590 | 2880 ft | 154 kts | 265° |
| 2026-05-05 12:37 | 33.63170 | -84.31863 | 2698 ft | 151 kts | 265° |
| 2026-05-05 12:37 | 33.63168 | -84.33115 | 2493 ft | 150 kts | 266° |
| 2026-05-05 12:38 | 33.63172 | -84.34343 | 2304 ft | 148 kts | 266° |
| 2026-05-05 12:38 | 33.63183 | -84.35573 | 2116 ft | 146 kts | 267° |
| 2026-05-05 12:38 | 33.63174 | -84.36786 | 1907 ft | 147 kts | 266° |
| 2026-05-05 12:38 | 33.63165 | -84.38012 | 1681 ft | 147 kts | 269° |
| 2026-05-05 12:39 | 33.63190 | -84.39256 | 1481 ft | 150 kts | 269° |
| 2026-05-05 12:39 | 33.63178 | -84.40514 | 1277 ft | 151 kts | 269° |
| 2026-05-05 12:39 | 33.63176 | -84.41773 | 1069 ft | 151 kts | 270° |
| 2026-05-05 12:39 | 33.63182 | -84.42957 | 1012 ft | 121 kts | 270° |
| 2026-05-05 12:40 | 33.63181 | -84.43764 | 1011 ft | 76 kts | 271° |
| 2026-05-05 12:40 | 33.63239 | -84.44192 | 1010 ft | 33 kts | 300° |
| 2026-05-05 12:40 | 33.63296 | -84.44285 | 1011 ft | 12 kts | 326° |
| 2026-05-05 12:40 | 33.63328 | -84.44276 | 1011 ft | 5 kts | 44° |
| 2026-05-05 12:41 | 33.63359 | -84.44237 | 1011 ft | 0 kts | 47° |
| 2026-05-05 12:41 | 33.63368 | -84.44226 | 1011 ft | 6 kts | 47° |
| 2026-05-05 12:41 | 33.63429 | -84.44193 | 1011 ft | 12 kts | 2° |
| 2026-05-05 12:41 | 33.63525 | -84.44192 | 1012 ft | 13 kts | 0° |
| 2026-05-05 12:42 | 33.63577 | -84.44153 | 1012 ft | 10 kts | 75° |
| 2026-05-05 12:42 | 33.63581 | -84.44056 | 1012 ft | 14 kts | 89° |
| 2026-05-05 12:42 | 33.63581 | -84.43928 | 1012 ft | 18 kts | 89° |
| 2026-05-05 12:42 | 33.63581 | -84.43839 | 1011 ft | 0 kts | 89° |
| 2026-05-05 12:43 | 33.63581 | -84.43818 | 1011 ft | 6 kts | 89° |
| 2026-05-05 12:43 | 33.63582 | -84.43752 | 1011 ft | 11 kts | 89° |
| 2026-05-05 12:45 | 33.63582 | -84.43650 | 1011 ft | 15 kts | 89° |
| 2026-05-05 12:45 | 33.63583 | -84.43512 | 1011 ft | 17 kts | 90° |
| 2026-05-05 12:46 | 33.63579 | -84.43361 | 1010 ft | 17 kts | 90° |
| 2026-05-05 12:46 | 33.63579 | -84.43216 | 1011 ft | 18 kts | 90° |
| 2026-05-05 12:46 | 33.63579 | -84.43055 | 1011 ft | 21 kts | 90° |
| 2026-05-05 12:46 | 33.63579 | -84.42902 | 1011 ft | 15 kts | 90° |
| 2026-05-05 12:47 | 33.63581 | -84.42776 | 1011 ft | 9 kts | 86° |
| 2026-05-05 12:47 | 33.63582 | -84.42683 | 1012 ft | 13 kts | 91° |
| 2026-05-05 12:47 | 33.63581 | -84.42552 | 1012 ft | 18 kts | 91° |
| 2026-05-05 12:47 | 33.63598 | -84.42431 | 1012 ft | 9 kts | 43° |
| 2026-05-05 12:48 | 33.63652 | -84.42442 | 1012 ft | 10 kts | 293° |
| 2026-05-05 12:48 | 33.63655 | -84.42541 | 1012 ft | 15 kts | 270° |
| 2026-05-05 12:48 | 33.63656 | -84.42679 | 1012 ft | 16 kts | 279° |
| 2026-05-05 12:48 | 33.63744 | -84.42731 | 1011 ft | 16 kts | 2° |
| 2026-05-05 12:49 | 33.63852 | -84.42731 | 1011 ft | 8 kts | 359° |
| 2026-05-05 12:49 | 33.63885 | -84.42701 | 1011 ft | 3 kts | 87° |
| 2026-05-05 12:49 | 33.63884 | -84.42654 | 1011 ft | 6 kts | 90° |
| 2026-05-05 12:49 | 33.63884 | -84.42648 | 1011 ft | 0 kts | 90° |